Aérodrome :
LOGIN :

S'inscrire | Disclaimer

   EN    FR    IT 

 










Légende :    VFR   VFR Marginal   IFR   IFR Intensif   IFR Très Intensif
Visi : 
Plafond : 
>= 8 km
>= 3000ft
5 à 8 km
1000 à 3000 ft
1500m à 5 km
500 à 1000 ft
800 à 1500m
200 à 500 ft
< 800m
< 200 ft
Symboles :   Orages  Brouillard  Fortes neiges  Fortes précipitations  Vent > 20 kt
SIGMETs :   Divers  Orages  Givrage  Turbulence  Onde Orograph.  Cendres Volcan.







- Altitude de l'aérodrome : 755 ft
- Code IATA : DRS


EDDC - Dresden Klotzsche

DERNIER METAR :
  • 182020Z 26004KT 2300 -DZ BR BKN004 12/10 Q1023

METARs EXPIRÉS :
  • 181950Z 26003KT 230V290 3500 BR BKN005 12/10 Q1023 TEMPO 2000 BKN003
  • 181920Z 29004KT 210V330 4000 BR BKN005 12/10 Q1023 TEMPO 2000 BKN003
  • 181850Z 27004KT 240V310 4200 BR BKN006 12/10 Q1022 NOSIG
  • 181820Z 29004KT 240V320 3900 BR BKN006 12/10 Q1022 NOSIG
  • 181750Z 29005KT 260V330 3900 BR BKN007 12/10 Q1022 NOSIG

TAF TAF EDDC
Valide du 18 à 18h jusqu'au 19 à 18h UTC


181700Z 1818/1918 34005KT 5000 BR BKN008
TEMPO 1818/1909 2500 BR BKN004
PROB30
TEMPO 1900/1909 1200 -DZ BR BKN001
BECMG 1908/1910 BKN010
BECMG 1910/1912 SCT012 BKN025
Pas de NOTAMs connus pour ce terrain.



MET'MAP, la Météo Aéronautique d'un coup d'oeil ! - Copyright ORBIFLY Décembre 2007 - Disclaimer

ORBIFLY MET'MAP TEAM :

Programmation & Développement : Alexandra Zaïnal
Conception & Développement : Baudouin d'Aumeries
Co-Programmation & Développement : Marc-Olivier Méhu
Soutien technique & logistique : Manuel Goepfert

Contact : metmap@orbifly.com




SOURCES & CREDITS :

   NOAA